Latest Coastal Weather Observations for Cape Willoughby

IDS60701

Issued at 5:31 pm CDT Friday 27 March 2015 (issued every 10 minutes, with the page automatically refreshed every 10 minutes)

About coastal observations | Map of coastal stations | Coastal observations for SA | Marine services | Other Formats
Station Details ID: 022803 Name: CAPE WILLOUGHBY Lat: -35.84 Lon: 138.13 Height: 55.0 m
Data from the previous 72 hours. | See also: Recent months at Cape Willoughby
Date/Time
CDT
Temp

°C
Wind Pressure Rain
since 9am
mm
Weather Cloud Vis
km
Sea
Height
m
Swell
Dir
 
Speed
knots
Gust
knots
hPa Trend Height
m
Period
s
Dir
27/05:30pm 15.4 SSE 9 12 1026.9 - 0.2 - - - - - - -
27/05:00pm 15.6 S 9 11 1026.8 - 0.2 - - - - - - -
27/04:30pm 15.7 S 8 11 1027.0 - 0.2 - - - - - - -
27/04:00pm 15.5 SSE 10 12 1027.0 - 0.2 - - - - - - -
27/03:30pm 15.7 S 9 11 1027.1 - 0.2 - - - - - - -
27/03:00pm 16.0 S 8 10 1027.3 - 0.2 - - - - - - -
27/02:30pm 15.6 S 9 11 1027.6 - 0.2 - - - - - - -
27/02:00pm 16.0 S 9 12 1027.9 - 0.2 - - - - - - -
27/01:30pm 15.2 S 3 5 1028.4 - 0.2 - - - - - - -
27/01:00pm 15.9 S 10 14 1028.6 - 0.2 - - - - - - -
27/12:30pm 15.9 S 6 11 1029.0 - 0.2 - - - - - - -
27/12:00pm 15.7 SSW 4 9 1029.3 - 0.2 Rain - - - - - -
27/11:30am 15.7 SSW 8 11 1029.6 - 0.0 - - - - - - -
27/11:00am 15.2 S 6 9 1029.6 - 0.0 - - - - - - -
27/10:30am 15.1 S 7 10 1029.6 - 0.0 - - - - - - -
27/10:00am 14.4 S 8 12 1029.4 - 0.0 - - - - - - -
27/09:30am 13.4 S 11 15 1029.2 - 0.0 - - - - - - -
27/09:00am 14.3 SW 12 16 1029.1 - 0.4 - - - - - - -
27/08:30am 14.9 SSW 11 17 1028.7 - 0.4 - - - - - - -
27/08:00am 13.9 SSW 11 18 1028.6 - 0.4 - - - - - - -
27/07:30am 14.6 S 13 17 1028.0 - 0.4 - - - - - - -
27/07:00am 14.6 S 12 20 1027.9 - 0.4 - - - - - - -
27/06:30am 14.7 S 15 19 1027.4 - 0.4 - - - - - - -
27/06:00am 14.6 S 15 20 1027.3 - 0.4 - - - - - - -
27/05:30am 14.9 S 11 15 1027.3 - 0.4 - - - - - - -
27/05:00am 14.8 SSW 13 17 1027.1 - 0.4 - - - - - - -
27/04:30am 14.9 SSW 10 15 1027.2 - 0.4 - - - - - - -
27/04:00am 14.7 S 13 17 1027.1 - 0.4 - - - - - - -
27/03:30am 14.5 SSW 16 24 1027.1 - 0.4 - - - - - - -
27/03:00am 15.0 S 12 19 1027.3 - 0.4 - - - - - - -
27/02:30am 14.7 SSW 11 18 1027.4 - 0.4 - - - - - - -
27/02:00am 14.8 S 14 18 1027.4 - 0.4 - - - - - - -
27/01:30am 14.5 SSW 15 20 1027.5 - 0.4 - - - - - - -
27/01:00am 14.5 SSW 17 25 1027.4 - 0.4 - - - - - - -
27/12:30am 14.7 SSW 14 18 1027.6 - 0.4 - - - - - - -
27/12:00am 14.4 SSW 13 18 1027.8 - 0.4 - - - - - - -
 
Date/Time
CDT
Temp

°C
Wind Pressure Rain
since 9am
mm
Weather Cloud Vis
km
Sea
Height
m
Swell
Dir
 
Speed
knots
Gust
knots
hPa Trend Height
m
Period
s
Dir
26/11:30pm 14.5 SSW 13 21 1027.7 - 0.4 - - - - - - -
26/11:00pm 14.8 SSW 12 19 1027.7 - 0.4 - - - - - - -
26/10:30pm 13.9 SSW 16 23 1028.0 - 0.4 - - - - - - -
26/10:00pm 14.1 SW 19 25 1028.1 - 0.4 - - - - - - -
26/09:59pm 14.2 SW 20 25 1028.0 - 0.4 - - - - - - -
26/09:41pm 14.5 SSW 15 27 1027.8 - 0.4 - - - - - - -
26/09:30pm 14.2 SSW 12 17 1028.0 - 0.4 - - - - - - -
26/09:00pm 13.5 SW 17 23 1028.0 - 0.4 - - - - - - -
26/08:43pm 13.2 SW 16 25 1027.8 - 0.4 - - - - - - -
26/08:30pm 13.6 WSW 15 20 1027.8 - 0.4 - - - - - - -
26/08:00pm 14.3 SSW 15 21 1027.4 - 0.4 - - - - - - -
26/07:30pm 13.9 SW 14 22 1027.2 - 0.4 - - - - - - -
26/07:00pm 14.2 SW 14 20 1027.2 - 0.4 - - - - - - -
26/06:57pm 14.2 SW 15 21 1027.2 - 0.4 - - - - - - -
26/06:30pm 14.2 SSW 20 25 1026.7 - 0.2 - - - - - - -
26/06:00pm 13.4 SSW 16 23 1026.5 - 0.2 - - - - - - -
26/05:30pm 13.9 SSW 21 26 1026.3 - 0.2 - - - - - - -
26/05:00pm 14.7 SSW 19 25 1026.0 - 0.2 - - - - - - -
26/04:30pm 15.2 SW 19 26 1025.9 - 0.2 - - - - - - -
26/04:00pm 15.0 SW 19 24 1025.9 - 0.2 - - - - - - -
26/03:30pm 15.2 SW 19 25 1025.9 - 0.2 - - - - - - -
26/03:00pm 15.4 SW 21 26 1025.8 - 0.2 - - - - - - -
26/02:30pm 15.7 SW 22 27 1026.0 - 0.2 - - - - - - -
26/02:00pm 15.9 SW 21 25 1026.1 - 0.2 - - - - - - -
26/01:30pm 15.5 SW 20 27 1026.2 - 0.2 - - - - - - -
26/01:00pm 14.8 SW 23 30 1026.1 - 0.2 - - - - - - -
26/12:30pm 15.4 SW 20 26 1026.0 - 0.2 - - - - - - -
26/12:00pm 13.6 SW 20 33 1025.9 - 0.2 Rain - - - - - -
26/11:59am 14.6 SW 19 33 1025.8 - 0.2 - - - - - - -
26/11:30am 13.6 SW 20 25 1026.0 - 0.0 - - - - - - -
26/11:10am 14.0 SW 19 30 1025.8 - 0.0 - - - - - - -
26/11:00am 14.2 SW 21 29 1025.8 - 0.0 - - - - - - -
26/10:30am 14.5 SW 21 26 1025.7 - 0.0 - - - - - - -
26/10:00am 12.9 SW 25 31 1025.1 - 0.0 - - - - - - -
26/09:30am 14.4 SW 22 28 1024.8 - 0.0 - - - - - - -
26/09:00am 13.6 SSW 22 30 1024.3 - 4.0 - - - - - - -
26/08:45am 13.9 SW 23 35 1023.9 - 4.0 - - - - - - -
26/08:30am 13.9 SW 22 29 1023.7 - 4.0 - - - - - - -
26/08:00am 13.4 SW 22 31 1023.5 - 4.0 - - - - - - -
26/07:53am 13.4 SW 20 30 1023.1 - 4.0 - - - - - - -
26/07:30am 13.0 SW 19 27 1023.2 - 4.0 - - - - - - -
26/07:11am 12.2 WSW 21 31 1023.1 - 4.0 - - - - - - -
26/07:00am 13.3 SW 23 31 1022.4 - 4.0 - - - - - - -
26/06:30am 12.6 SW 19 31 1022.0 - 4.0 - - - - - - -
26/06:28am 12.5 SW 18 29 1022.0 - 4.0 - - - - - - -
26/06:00am 11.7 SW 23 32 1022.1 - 4.0 Recent precip. - - - - - -
26/05:30am 12.7 SW 22 34 1021.4 - 3.6 - - - - - - -
26/05:00am 11.9 SW 23 33 1021.4 - 3.6 - - - - - - -
26/04:30am 12.2 SW 21 31 1021.4 - 3.4 - - - - - - -
26/04:00am 12.7 SW 22 34 1021.2 - 3.4 - - - - - - -
26/03:47am 12.8 SW 22 28 1021.2 - 3.4 - - - - - - -
26/03:30am 13.0 WSW 18 23 1021.3 - 3.2 - - - - - - -
26/03:00am 13.1 SW 23 29 1021.1 - 3.2 - - - - - - -
26/02:31am 12.5 SW 17 25 1021.2 - 3.2 - - - - - - -
26/02:30am 12.6 SW 16 25 1021.2 - 3.2 - - - - - - -
26/02:00am 11.9 WSW 14 19 1021.4 - 3.2 - - - - - - -
26/01:49am 12.1 WSW 21 26 1021.3 - 3.2 - - - - - - -
26/01:32am 12.3 SW 23 34 1020.9 - 3.2 - - - - - - -
26/01:30am 13.1 SW 22 30 1021.1 - 3.2 - - - - - - -
26/01:00am 12.9 SW 22 31 1021.0 - 3.2 - - - - - - -
26/12:43am 13.2 SW 19 30 1020.7 - 3.2 - - - - - - -
26/12:30am 12.9 WSW 21 26 1021.0 - 3.2 - - - - - - -
26/12:00am 13.2 SW 25 31 1020.7 - 3.2 - - - - - - -
 
Date/Time
CDT
Temp

°C
Wind Pressure Rain
since 9am
mm
Weather Cloud Vis
km
Sea
Height
m
Swell
Dir
 
Speed
knots
Gust
knots
hPa Trend Height
m
Period
s
Dir
25/11:30pm 13.2 SW 23 29 1020.5 - 3.2 - - - - - - -
25/11:03pm 12.3 SW 22 33 1020.7 - 3.2 - - - - - - -
25/11:00pm 12.3 SW 24 33 1020.4 - 3.2 - - - - - - -
25/10:52pm 13.4 WSW 18 32 1020.6 - 3.2 - - - - - - -
25/10:30pm 13.4 SW 21 28 1020.4 - 3.2 - - - - - - -
25/10:00pm 13.3 SW 25 33 1019.9 - 3.2 - - - - - - -
25/09:54pm 13.2 WSW 21 31 1019.9 - 3.2 - - - - - - -
25/09:30pm 13.3 WSW 22 29 1020.0 - 3.2 - - - - - - -
25/09:00pm 13.6 WSW 22 29 1019.4 - 3.2 - - - - - - -
25/08:30pm 13.9 SW 23 30 1018.8 - 3.2 - - - - - - -
25/08:02pm 13.9 SW 22 32 1018.7 - 3.2 - - - - - - -
25/08:00pm 13.8 SW 23 32 1018.5 - 3.2 - - - - - - -
25/07:37pm 13.8 WSW 22 33 1018.3 - 3.2 - - - - - - -
25/07:30pm 13.9 SW 26 33 1017.9 - 3.2 - - - - - - -
25/07:00pm 14.1 SW 23 29 1017.6 - 3.2 - - - - - - -
25/06:30pm 13.9 WSW 26 33 1016.9 - 3.2 - - - - - - -
25/06:22pm 13.8 WSW 18 31 1016.8 - 3.2 - - - - - - -
25/06:00pm 13.0 WSW 19 25 1016.9 - 3.2 Recent precip. - - - - - -
25/05:30pm 12.1 WSW 24 33 1016.5 - 3.0 - - - - - - -
25/05:00pm 12.6 WSW 25 33 1016.1 - 2.6 - - - - - - -
25/04:30pm 13.6 SW 25 33 1015.9 - 1.8 - - - - - - -
25/04:12pm 13.7 WSW 27 37 1015.6 - 1.0 - - - - - - -
25/04:01pm 14.8 WNW 17 32 1015.5 - 0.6 - - - - - - -
25/04:00pm 14.9 WNW 17 23 1015.6 - 0.6 - - - - - - -
25/03:33pm 18.6 NW 28 39 1014.7 - 0.0 - - - - - - -
25/03:30pm 18.3 NW 30 39 1014.4 - 0.0 - - - - - - -
25/03:00pm 18.6 NW 28 40 1014.6 - 0.0 - - - - - - -
25/02:46pm 19.5 NW 27 38 1014.6 - 0.0 - - - - - - -
25/02:30pm 18.4 NW 28 37 1015.0 - 0.0 - - - - - - -
25/02:03pm 18.8 NW 28 39 1015.2 - 0.0 - - - - - - -
25/02:00pm 19.1 NW 28 37 1015.5 - 0.0 - - - - - - -
25/01:38pm 18.9 NW 26 36 1015.9 - 0.0 - - - - - - -
25/01:30pm 19.6 NW 27 35 1015.9 - 0.0 - - - - - - -
25/01:00pm 19.5 NNW 23 34 1016.3 - 0.0 - - - - - - -
25/12:43pm 19.6 NW 20 30 1016.6 - 0.0 - - - - - - -
25/12:30pm 19.3 NW 24 31 1016.8 - 0.0 - - - - - - -
25/12:00pm 18.6 NW 21 30 1017.1 - 0.0 - - - - - - -
25/11:30am 15.8 NW 20 28 1017.9 - 0.0 - - - - - - -
25/11:00am 16.4 NW 20 27 1018.0 - 0.0 - - - - - - -
25/10:56am 16.7 NW 19 27 1018.0 - 0.0 - - - - - - -
25/10:30am 17.4 NNW 14 19 1018.1 - 0.0 - - - - - - -
25/10:00am 16.6 NW 12 17 1018.6 - 0.0 - - - - - - -
25/09:30am 15.6 NW 11 15 1018.9 - 0.0 - - - - - - -
25/09:00am 15.4 NW 13 17 1018.8 - 0.0 - - - - - - -
25/08:30am 15.2 NNW 11 15 1018.8 - 0.0 - - - - - - -
25/08:00am 14.3 NW 9 12 1018.7 - 0.0 - - - - - - -
25/07:30am 13.6 NW 10 11 1018.8 - 0.0 - - - - - - -
25/07:00am 13.1 NW 10 11 1018.6 - 0.0 - - - - - - -
25/06:30am 12.7 WNW 9 9 1018.6 - 0.0 - - - - - - -
25/06:00am 13.0 WNW 7 7 1018.9 - 0.0 - - - - - - -
25/05:30am 13.7 WNW 8 9 1019.0 - 0.0 - - - - - - -
25/05:00am 13.5 WNW 7 8 1019.2 - 0.0 - - - - - - -
25/04:30am 13.7 W 8 10 1019.5 - 0.0 - - - - - - -
25/04:00am 13.8 W 7 9 1019.7 - 0.0 - - - - - - -
25/03:30am 13.7 W 8 10 1020.1 - 0.0 - - - - - - -
25/03:00am 14.0 W 6 7 1020.4 - 0.0 - - - - - - -
25/02:30am 13.9 WNW 4 5 1020.6 - 0.0 - - - - - - -
25/02:00am 14.3 WSW 3 4 1020.8 - 0.0 - - - - - - -
25/01:30am 14.1 WSW 2 2 1021.0 - 0.0 - - - - - - -
25/01:00am 14.2 WNW 1 2 1021.1 - 0.0 - - - - - - -
25/12:30am 14.0 CALM 0 0 1021.5 - 0.0 - - - - - - -
25/12:00am 14.1 WNW 3 3 1021.4 - 0.0 - - - - - - -
 
Date/Time
CDT
Temp

°C
Wind Pressure Rain
since 9am
mm
Weather Cloud Vis
km
Sea
Height
m
Swell
Dir
 
Speed
knots
Gust
knots
hPa Trend Height
m
Period
s
Dir
24/11:30pm 14.5 W 3 5 1022.1 - 0.0 - - - - - - -
24/11:00pm 14.9 S 3 6 1022.4 - 0.0 - - - - - - -
24/10:30pm 14.8 S 3 5 1022.7 - 0.0 - - - - - - -
24/10:00pm 14.9 SSW 5 9 1022.8 - 0.0 - - - - - - -
24/09:30pm 14.8 SSW 6 9 1022.8 - 0.0 - - - - - - -
24/09:00pm 14.9 S 5 9 1022.4 - 0.0 - - - - - - -
24/08:30pm 14.9 S 4 9 1022.7 - 0.0 - - - - - - -
24/08:00pm 14.9 SSE 2 4 1022.2 - 0.0 - - - - - - -
24/07:30pm 15.1 S 6 11 1022.0 - 0.0 - - - - - - -
24/07:00pm 15.1 S 5 9 1022.1 - 0.0 - - - - - - -
24/06:30pm 15.1 S 6 8 1022.0 - 0.0 - - - - - - -
24/06:00pm 15.1 S 6 8 1021.9 - 0.0 - - - - - - -

Other Formats:

Comma delimited format used in spreadsheet applications
http://www.bom.gov.au/fwo/IDS60701/IDS60701.94822.axf

JavaScript Object Notation format (JSON) in row-major order
http://www.bom.gov.au/fwo/IDS60701/IDS60701.94822.json